createdAt,value
2023-05-22T05:01:12.358Z,29.54
2023-05-22T05:02:12.273Z,29.54
2023-05-22T05:03:12.391Z,29.50
2023-05-22T05:04:12.407Z,29.48
2023-05-22T05:05:12.347Z,29.51
2023-05-22T05:06:12.424Z,29.46
2023-05-22T05:07:12.433Z,29.48
2023-05-22T05:08:12.473Z,29.48
2023-05-22T05:09:12.477Z,29.47
2023-05-22T05:10:12.484Z,29.45
2023-05-22T05:11:12.518Z,29.47
2023-05-22T05:12:12.639Z,29.39
2023-05-22T05:13:12.670Z,29.39
2023-05-22T05:14:12.704Z,29.41
2023-05-22T05:15:12.768Z,29.37
2023-05-22T05:16:12.844Z,29.29
2023-05-22T05:17:12.834Z,29.29
2023-05-22T05:18:12.993Z,29.31
2023-05-22T05:19:12.944Z,29.19
2023-05-22T05:20:13.164Z,29.17
2023-05-22T05:21:12.987Z,29.12
2023-05-22T05:22:13.055Z,29.08
2023-05-22T05:23:13.067Z,29.08
2023-05-22T05:24:13.110Z,29.04
2023-05-22T05:25:13.219Z,29.02
2023-05-22T05:26:13.222Z,29.09
2023-05-22T05:27:13.238Z,29.09
2023-05-22T05:28:13.283Z,29.14
2023-05-22T05:29:13.594Z,29.16
2023-05-22T05:30:13.421Z,29.17
2023-05-22T05:31:13.446Z,29.24
2023-05-22T05:32:13.615Z,29.18
2023-05-22T05:33:13.574Z,29.22
2023-05-22T05:34:13.588Z,29.18
2023-05-22T05:35:13.609Z,29.25
2023-05-22T05:36:13.697Z,29.24
2023-05-22T05:37:13.711Z,29.17
2023-05-22T05:38:13.838Z,29.15
2023-05-22T05:39:13.812Z,29.14
2023-05-22T05:40:13.837Z,29.06
2023-05-22T05:41:13.890Z,29.05
2023-05-22T05:42:13.961Z,28.96
2023-05-22T05:43:13.990Z,29.05
2023-05-22T05:44:14.019Z,29.07
2023-05-22T05:45:14.062Z,29.18
2023-05-22T05:46:14.155Z,29.20
2023-05-22T05:47:14.172Z,29.21
2023-05-22T05:48:14.181Z,29.24
2023-05-22T05:49:14.311Z,29.36
2023-05-22T05:50:14.267Z,29.32
2023-05-22T05:51:14.357Z,29.50
2023-05-22T05:52:14.389Z,29.49
2023-05-22T05:53:14.611Z,29.52
2023-05-22T05:54:14.433Z,29.43
2023-05-22T05:55:14.497Z,29.57
2023-05-22T05:56:14.489Z,29.52
2023-05-22T05:57:14.590Z,29.54
2023-05-22T05:58:14.577Z,29.77
2023-05-22T05:59:14.625Z,29.74
2023-05-22T06:00:15.600Z,29.62
2023-05-22T06:01:14.712Z,29.70
2023-05-22T06:02:14.746Z,29.63
2023-05-22T06:03:14.898Z,29.57
2023-05-22T06:04:14.815Z,29.54
2023-05-22T06:05:14.915Z,29.48
2023-05-22T06:06:14.867Z,29.45
2023-05-22T06:07:14.869Z,29.48
2023-05-22T06:08:14.902Z,29.56
2023-05-22T06:09:14.979Z,29.53
2023-05-22T06:10:14.989Z,29.49
2023-05-22T06:11:15.635Z,29.59
2023-05-22T06:12:15.050Z,29.53
2023-05-22T06:13:15.045Z,29.62
2023-05-22T06:14:15.110Z,29.68
2023-05-22T06:15:15.156Z,29.65
2023-05-22T06:16:15.184Z,29.70
2023-05-22T06:17:15.218Z,29.71
2023-05-22T06:18:15.619Z,29.63
2023-05-22T06:19:15.337Z,29.66
2023-05-22T06:20:15.318Z,29.72
2023-05-22T06:21:15.384Z,29.70
2023-05-22T06:22:15.396Z,29.69
2023-05-22T06:23:15.422Z,29.68
2023-05-22T06:24:15.475Z,29.73
2023-05-22T06:25:15.613Z,29.70
2023-05-22T06:26:15.522Z,29.70
2023-05-22T06:27:15.543Z,29.78
2023-05-22T06:28:15.623Z,29.70
2023-05-22T06:29:15.623Z,29.71
2023-05-22T06:30:22.435Z,29.78
2023-05-22T06:31:16.654Z,29.77
2023-05-22T06:32:15.716Z,29.80
2023-05-22T06:33:15.744Z,29.77
2023-05-22T06:34:15.682Z,29.80
2023-05-22T06:35:15.753Z,29.90
2023-05-22T06:36:17.225Z,29.94
2023-05-22T06:37:15.635Z,29.96
2023-05-22T06:38:15.601Z,30.02
2023-05-22T06:39:15.581Z,30.07
2023-05-22T06:40:15.599Z,30.16
2023-05-22T06:41:15.636Z,30.42
2023-05-22T06:42:15.544Z,30.38
2023-05-22T06:43:15.547Z,30.41
2023-05-22T06:44:15.572Z,30.41
2023-05-22T06:45:15.582Z,30.50
2023-05-22T06:46:15.657Z,30.47
2023-05-22T06:47:15.626Z,30.42
2023-05-22T06:48:15.692Z,30.50
2023-05-22T06:49:15.697Z,30.62
2023-05-22T06:50:15.747Z,30.45
2023-05-22T06:51:15.766Z,30.41
2023-05-22T06:52:15.819Z,30.38
2023-05-22T06:53:15.796Z,30.58
2023-05-22T06:54:16.646Z,30.63
2023-05-22T06:55:15.879Z,30.65
2023-05-22T06:56:15.920Z,30.57
2023-05-22T06:57:15.940Z,30.58
2023-05-22T06:58:15.932Z,30.51
2023-05-22T06:59:15.968Z,30.51
2023-05-22T07:00:15.950Z,30.52
2023-05-22T07:01:15.979Z,30.70
2023-05-22T07:02:15.955Z,30.66
2023-05-22T07:03:15.915Z,30.62
2023-05-22T07:04:15.911Z,30.64
2023-05-22T07:05:15.959Z,30.60
2023-05-22T07:06:16.225Z,30.74
2023-05-22T07:07:16.006Z,30.78
2023-05-22T07:08:15.965Z,30.73
2023-05-22T07:09:16.041Z,31.01
2023-05-22T07:10:15.959Z,30.94
2023-05-22T07:11:16.007Z,30.91
2023-05-22T07:12:15.987Z,30.93
2023-05-22T07:13:15.981Z,30.96
2023-05-22T07:14:16.027Z,30.93
2023-05-22T07:15:16.023Z,30.91
2023-05-22T07:16:16.108Z,30.96
2023-05-22T07:17:16.056Z,31.02
2023-05-22T07:18:16.172Z,31.00
2023-05-22T07:19:16.219Z,30.94
2023-05-22T07:20:16.218Z,31.00
2023-05-22T07:21:16.278Z,31.03
2023-05-22T07:22:16.352Z,31.16
2023-05-22T07:23:16.405Z,31.15
2023-05-22T07:24:17.157Z,31.03
2023-05-22T07:25:16.777Z,30.99
2023-05-22T07:26:16.598Z,30.99
2023-05-22T07:27:16.649Z,30.90
2023-05-22T07:28:16.706Z,30.93
2023-05-22T07:29:16.746Z,31.01
2023-05-22T07:30:16.802Z,30.98
2023-05-22T07:31:16.905Z,31.17
2023-05-22T07:32:16.945Z,31.17
2023-05-22T07:33:17.006Z,31.30
2023-05-22T07:34:17.081Z,31.37
2023-05-22T07:35:17.108Z,31.26
2023-05-22T07:36:17.158Z,31.30
2023-05-22T07:37:17.245Z,31.23
2023-05-22T07:38:17.286Z,31.18
2023-05-22T07:39:17.336Z,31.40
2023-05-22T07:40:17.397Z,31.25
2023-05-22T07:41:17.569Z,31.29
2023-05-22T07:42:17.495Z,31.25
2023-05-22T07:43:17.533Z,31.23
2023-05-22T07:44:17.626Z,31.22
2023-05-22T07:45:17.650Z,31.29
2023-05-22T07:46:17.832Z,31.34
2023-05-22T07:47:17.794Z,31.58
2023-05-22T07:48:17.845Z,31.41
2023-05-22T07:49:17.753Z,31.39
2023-05-22T07:50:17.763Z,31.48
2023-05-22T07:51:17.737Z,31.54
2023-05-22T07:52:17.765Z,31.37
2023-05-22T07:53:17.754Z,31.65
2023-05-22T07:54:17.790Z,31.46
2023-05-22T07:55:17.747Z,31.14
2023-05-22T07:56:17.784Z,31.12
2023-05-22T07:57:17.794Z,31.16
2023-05-22T07:58:17.736Z,31.14
2023-05-22T07:59:17.721Z,30.94
2023-05-22T08:00:17.716Z,30.84
2023-05-22T08:01:17.682Z,30.76
2023-05-22T08:02:17.795Z,30.70
2023-05-22T08:03:18.085Z,30.69
2023-05-22T08:04:18.042Z,30.72
2023-05-22T08:05:18.240Z,30.78
2023-05-22T08:06:17.897Z,30.73
2023-05-22T08:07:17.896Z,30.75
2023-05-22T08:08:17.939Z,30.76
2023-05-22T08:09:17.991Z,30.72
2023-05-22T08:10:17.980Z,30.69
2023-05-22T08:11:18.070Z,30.76
2023-05-22T08:12:18.714Z,30.70
2023-05-22T08:13:18.202Z,30.79
2023-05-22T08:14:18.118Z,30.82
2023-05-22T08:15:18.156Z,30.73
2023-05-22T08:16:18.164Z,30.69
2023-05-22T08:17:18.278Z,30.69
2023-05-22T08:18:18.298Z,30.73
2023-05-22T08:19:18.435Z,30.79
2023-05-22T08:20:18.355Z,30.77
2023-05-22T08:21:18.385Z,30.76
2023-05-22T08:22:18.481Z,30.75
2023-05-22T08:23:18.478Z,30.73
2023-05-22T08:24:18.549Z,30.71
2023-05-22T08:25:18.611Z,30.71
2023-05-22T08:26:18.760Z,30.71
2023-05-22T08:27:18.664Z,30.71
2023-05-22T08:28:18.680Z,30.69
2023-05-22T08:29:18.739Z,30.75
2023-05-22T08:30:19.720Z,31.07
2023-05-22T08:31:19.088Z,31.23
2023-05-22T08:32:18.919Z,31.57
2023-05-22T08:33:18.889Z,31.45
2023-05-22T08:34:18.941Z,31.54
2023-05-22T08:35:18.996Z,31.66
2023-05-22T08:36:19.015Z,31.78
2023-05-22T08:37:19.069Z,32.02
2023-05-22T08:38:19.049Z,32.28
2023-05-22T08:39:19.301Z,32.27
2023-05-22T08:40:19.260Z,32.43
2023-05-22T08:41:19.138Z,32.52
2023-05-22T08:42:19.151Z,32.53
2023-05-22T08:43:19.173Z,32.64
2023-05-22T08:44:19.186Z,32.73
2023-05-22T08:45:19.509Z,32.82
2023-05-22T08:46:19.292Z,33.15
2023-05-22T08:47:19.336Z,33.13
2023-05-22T08:48:19.303Z,33.37
2023-05-22T08:49:19.268Z,33.23
2023-05-22T08:50:19.283Z,33.17
2023-05-22T08:51:19.244Z,33.27
2023-05-22T08:52:19.239Z,33.19
2023-05-22T08:53:19.237Z,33.27
2023-05-22T08:54:19.250Z,33.11
2023-05-22T08:55:19.307Z,33.05
2023-05-22T08:56:19.244Z,33.06
2023-05-22T08:57:19.243Z,33.09
2023-05-22T08:58:19.241Z,33.02
2023-05-22T08:59:20.159Z,33.16
2023-05-22T09:00:19.284Z,32.94
2023-05-22T09:01:19.335Z,33.13
2023-05-22T09:02:19.269Z,33.08
2023-05-22T09:03:19.481Z,33.04
2023-05-22T09:04:19.323Z,33.13
2023-05-22T09:05:19.373Z,33.10
2023-05-22T09:06:19.422Z,33.12
2023-05-22T09:07:19.406Z,33.04
2023-05-22T09:08:21.206Z,33.13
2023-05-22T09:09:19.437Z,33.05
2023-05-22T09:10:19.375Z,33.18
2023-05-22T09:11:20.107Z,33.09
2023-05-22T09:12:19.342Z,33.11
2023-05-22T09:13:19.355Z,33.08
2023-05-22T09:14:19.319Z,32.99
2023-05-22T09:15:19.319Z,33.01
2023-05-22T09:16:19.369Z,33.16
2023-05-22T09:17:19.322Z,32.89
2023-05-22T09:18:19.364Z,32.76
2023-05-22T09:19:19.522Z,32.65
2023-05-22T09:20:19.445Z,32.57
2023-05-22T09:21:29.415Z,32.41
2023-05-22T09:22:21.850Z,32.18
2023-05-22T09:23:19.474Z,32.22
2023-05-22T09:24:19.472Z,32.38
2023-05-22T09:25:19.512Z,32.42
2023-05-22T09:26:19.473Z,32.44
2023-05-22T09:27:19.858Z,32.50
2023-05-22T09:28:19.529Z,32.54
2023-05-22T09:29:19.473Z,32.61
2023-05-22T09:30:19.513Z,32.50
2023-05-22T09:31:19.535Z,32.45
2023-05-22T09:32:19.426Z,32.41
2023-05-22T09:33:19.441Z,32.41
2023-05-22T09:34:19.398Z,32.38
2023-05-22T09:35:19.449Z,32.53
2023-05-22T09:36:19.455Z,32.57
2023-05-22T09:37:19.553Z,32.70
2023-05-22T09:38:19.552Z,32.64
2023-05-22T09:39:19.624Z,33.14
2023-05-22T09:40:19.609Z,33.04
2023-05-22T09:41:19.676Z,32.91
2023-05-22T09:42:19.739Z,33.02
2023-05-22T09:43:19.709Z,32.92
2023-05-22T09:44:19.764Z,32.88
2023-05-22T09:45:19.827Z,32.79
2023-05-22T09:46:19.923Z,32.89
2023-05-22T09:47:19.924Z,32.97
2023-05-22T09:48:19.987Z,33.03
2023-05-22T09:49:20.068Z,33.04
2023-05-22T09:50:20.088Z,33.00
2023-05-22T09:51:20.146Z,33.15
2023-05-22T09:52:20.201Z,33.13
2023-05-22T09:53:20.234Z,33.19
2023-05-22T09:54:20.338Z,33.21
2023-05-22T09:55:20.385Z,33.25
2023-05-22T09:56:30.789Z,33.37
2023-05-22T09:57:21.449Z,33.44
2023-05-22T09:58:20.427Z,33.41
2023-05-22T09:59:20.412Z,33.53
2023-05-22T10:00:20.391Z,33.65
2023-05-22T10:01:20.475Z,33.55
2023-05-22T10:02:20.376Z,33.63
2023-05-22T10:03:20.387Z,33.72
2023-05-22T10:04:20.419Z,33.74
2023-05-22T10:05:20.426Z,33.71
2023-05-22T10:06:20.473Z,33.91
2023-05-22T10:07:20.475Z,33.80
2023-05-22T10:08:20.563Z,33.84
2023-05-22T10:09:20.587Z,33.71
2023-05-22T10:10:20.700Z,33.80
2023-05-22T10:11:20.692Z,33.81
2023-05-22T10:12:20.781Z,33.90
2023-05-22T10:13:20.833Z,34.03
2023-05-22T10:14:20.852Z,34.00
2023-05-22T10:15:20.937Z,34.03
2023-05-22T10:16:21.010Z,34.05
2023-05-22T10:17:21.042Z,34.03
2023-05-22T10:18:21.065Z,33.95
2023-05-22T10:19:21.128Z,33.99
2023-05-22T10:20:21.177Z,34.07
2023-05-22T10:21:21.366Z,34.03
2023-05-22T10:22:21.266Z,34.06
2023-05-22T10:23:21.308Z,34.03
2023-05-22T10:24:21.384Z,34.08
2023-05-22T10:25:21.409Z,34.21
2023-05-22T10:26:22.230Z,34.12
2023-05-22T10:27:21.563Z,33.72
2023-05-22T10:28:21.586Z,33.82
2023-05-22T10:29:21.626Z,33.59
2023-05-22T10:30:21.766Z,33.45
2023-05-22T10:31:21.738Z,33.57
2023-05-22T10:32:22.144Z,32.21
2023-05-22T10:33:21.922Z,31.55
2023-05-22T10:34:21.877Z,32.51
2023-05-22T10:35:21.951Z,32.88
2023-05-22T10:36:22.066Z,32.19
2023-05-22T10:37:22.152Z,32.49
2023-05-22T10:38:22.079Z,32.52
2023-05-22T10:39:22.729Z,32.45
2023-05-22T10:40:22.300Z,32.42
2023-05-22T10:41:22.257Z,32.35
2023-05-22T10:42:22.313Z,32.40
2023-05-22T10:43:22.399Z,32.34
2023-05-22T10:44:22.469Z,32.36
2023-05-22T10:45:22.491Z,32.22
2023-05-22T10:46:22.663Z,32.18
2023-05-22T10:47:22.685Z,32.18
2023-05-22T10:48:22.689Z,32.10
2023-05-22T10:49:22.800Z,32.04
2023-05-22T10:50:22.791Z,32.08
2023-05-22T10:51:22.882Z,32.08
2023-05-22T10:52:22.966Z,32.07
2023-05-22T10:53:23.116Z,32.03
2023-05-22T10:54:23.036Z,32.01
2023-05-22T10:55:23.218Z,32.11
2023-05-22T10:56:25.255Z,31.97
2023-05-22T10:57:23.222Z,32.04
2023-05-22T10:58:24.822Z,31.98
2023-05-22T10:59:23.435Z,31.95
2023-05-22T11:00:23.480Z,31.89
2023-05-22T11:01:23.488Z,31.92
2023-05-22T11:02:23.710Z,31.84
2023-05-22T11:03:23.868Z,31.82
2023-05-22T11:04:23.627Z,31.81
2023-05-22T11:05:23.745Z,31.73
2023-05-22T11:06:23.674Z,31.73
2023-05-22T11:07:24.766Z,31.64
2023-05-22T11:08:23.931Z,30.61
2023-05-22T11:09:23.896Z,30.02
2023-05-22T11:10:23.893Z,30.26
2023-05-22T11:11:23.945Z,30.09
2023-05-22T11:12:23.941Z,30.08
2023-05-22T11:13:24.007Z,29.70
2023-05-22T11:14:23.992Z,29.23
2023-05-22T11:15:24.137Z,29.25
2023-05-22T11:16:25.404Z,29.13
2023-05-22T11:17:24.815Z,28.93
2023-05-22T11:18:24.210Z,28.01
2023-05-22T11:19:24.384Z,27.89
2023-05-22T11:20:24.295Z,27.85
2023-05-22T11:21:24.328Z,27.88
2023-05-22T11:22:24.385Z,27.99
2023-05-22T11:23:24.594Z,28.33
2023-05-22T11:24:24.599Z,28.26
2023-05-22T11:25:24.630Z,28.25
2023-05-22T11:26:25.623Z,28.55
2023-05-22T11:27:28.422Z,28.51
2023-05-22T11:28:25.610Z,28.56
2023-05-22T11:29:24.596Z,28.56
2023-05-22T11:30:24.556Z,28.39
2023-05-22T11:31:24.594Z,28.23
2023-05-22T11:32:24.589Z,28.25
2023-05-22T11:33:24.656Z,28.15
2023-05-22T11:34:24.541Z,28.17
2023-05-22T11:35:24.573Z,28.11
2023-05-22T11:36:24.513Z,28.08
2023-05-22T11:37:24.512Z,27.94
2023-05-22T11:38:24.494Z,28.03
2023-05-22T11:39:24.482Z,27.98
2023-05-22T11:40:24.593Z,28.04
2023-05-22T11:41:24.531Z,27.90
2023-05-22T11:42:24.578Z,27.82
2023-05-22T11:43:24.687Z,27.71
2023-05-22T11:44:24.636Z,27.67
2023-05-22T11:45:24.655Z,27.63
2023-05-22T11:46:24.705Z,27.57
2023-05-22T11:47:24.673Z,27.52
2023-05-22T11:48:24.651Z,27.41
2023-05-22T11:49:24.584Z,27.39
2023-05-22T11:50:40.213Z,27.29
2023-05-22T11:51:25.604Z,27.17
2023-05-22T11:52:24.982Z,27.37
2023-05-22T11:53:24.575Z,27.92
2023-05-22T11:54:24.590Z,30.52
2023-05-22T11:55:24.547Z,28.79
2023-05-22T11:56:25.274Z,27.75
2023-05-22T11:57:24.615Z,27.02
2023-05-22T11:58:24.539Z,26.70
2023-05-22T11:59:24.506Z,26.81
2023-05-22T12:00:24.564Z,27.14
2023-05-22T12:01:24.496Z,26.94
2023-05-22T12:02:24.538Z,27.08
2023-05-22T12:03:25.958Z,26.94
2023-05-22T12:04:25.354Z,26.85
2023-05-22T12:05:24.582Z,26.93
2023-05-22T12:06:24.605Z,26.80
2023-05-22T12:07:24.615Z,26.45
2023-05-22T12:08:24.630Z,26.36
2023-05-22T12:09:24.686Z,26.38
2023-05-22T12:10:24.743Z,26.07
2023-05-22T12:11:24.742Z,25.97
2023-05-22T12:12:24.794Z,25.63
2023-05-22T12:13:24.809Z,24.97
2023-05-22T12:14:24.853Z,25.36
2023-05-22T12:15:24.884Z,24.80
2023-05-22T12:16:24.920Z,24.26
2023-05-22T12:17:24.921Z,24.62
2023-05-22T12:18:24.953Z,24.71
2023-05-22T12:19:25.067Z,24.86
2023-05-22T12:20:25.061Z,24.70
2023-05-22T12:21:25.192Z,24.68
2023-05-22T12:22:25.138Z,24.56
2023-05-22T12:23:25.187Z,24.07
2023-05-22T12:24:25.181Z,23.76
2023-05-22T12:25:25.234Z,23.89
2023-05-22T12:26:25.262Z,23.83
2023-05-22T12:27:25.286Z,24.06
2023-05-22T12:28:25.359Z,24.03
2023-05-22T12:29:25.466Z,24.22
2023-05-22T12:30:25.456Z,24.18
2023-05-22T12:31:25.505Z,24.08
2023-05-22T12:32:25.736Z,24.08
2023-05-22T12:33:25.598Z,23.61
2023-05-22T12:34:25.636Z,23.58
2023-05-22T12:35:25.692Z,23.80
2023-05-22T12:36:25.731Z,23.72
2023-05-22T12:37:25.795Z,23.70
2023-05-22T12:38:25.811Z,23.72
2023-05-22T12:39:25.895Z,23.67
2023-05-22T12:40:25.907Z,23.70
2023-05-22T12:41:25.962Z,23.21
2023-05-22T12:42:26.007Z,23.29
2023-05-22T12:43:26.038Z,23.66
2023-05-22T12:44:26.123Z,23.42
2023-05-22T12:45:26.262Z,20.80
2023-05-22T12:46:26.181Z,21.43
2023-05-22T12:47:26.370Z,21.85
2023-05-22T12:48:26.274Z,21.98
2023-05-22T12:49:26.238Z,21.79
2023-05-22T12:50:26.252Z,21.65
2023-05-22T12:51:26.257Z,20.97
2023-05-22T12:52:26.309Z,20.94
2023-05-22T12:53:26.366Z,21.29
2023-05-22T12:54:26.426Z,21.40
2023-05-22T12:55:26.464Z,21.58
2023-05-22T12:56:26.544Z,21.53
2023-05-22T12:57:26.649Z,21.58
2023-05-22T12:58:26.692Z,21.60
2023-05-22T12:59:26.664Z,21.79
2023-05-22T13:00:26.712Z,22.00
2023-05-22T13:01:27.001Z,22.13
2023-05-22T13:02:26.893Z,22.13
2023-05-22T13:03:26.882Z,22.12
2023-05-22T13:04:26.990Z,22.09
2023-05-22T13:05:27.130Z,22.20
2023-05-22T13:06:27.963Z,22.26
2023-05-22T13:07:27.306Z,22.45
2023-05-22T13:08:27.360Z,22.42
2023-05-22T13:09:27.397Z,22.32
2023-05-22T13:10:27.494Z,22.42
2023-05-22T13:11:27.458Z,22.45
2023-05-22T13:12:27.536Z,22.45
2023-05-22T13:13:27.551Z,22.57
2023-05-22T13:14:27.639Z,22.57
2023-05-22T13:15:27.680Z,22.62
2023-05-22T13:16:27.818Z,22.73
2023-05-22T13:17:27.931Z,22.65
2023-05-22T13:18:27.839Z,22.68
2023-05-22T13:19:27.895Z,22.79
2023-05-22T13:20:27.966Z,22.87
2023-05-22T13:21:28.027Z,22.84
2023-05-22T13:22:28.049Z,22.90
2023-05-22T13:23:28.105Z,22.87
2023-05-22T13:24:28.253Z,22.90
2023-05-22T13:25:28.146Z,22.95
2023-05-22T13:26:28.112Z,23.01
2023-05-22T13:27:29.799Z,22.90
2023-05-22T13:28:28.217Z,22.95
2023-05-22T13:29:28.253Z,23.04
2023-05-22T13:30:29.293Z,22.98
2023-05-22T13:31:28.389Z,22.99
2023-05-22T13:32:28.468Z,23.09
2023-05-22T13:33:28.620Z,23.03
2023-05-22T13:34:28.661Z,23.08
2023-05-22T13:35:28.647Z,23.08
2023-05-22T13:36:28.481Z,23.12
2023-05-22T13:37:28.561Z,23.11
2023-05-22T13:38:28.500Z,23.06
2023-05-22T13:39:28.574Z,23.11
2023-05-22T13:40:29.282Z,23.11
2023-05-22T13:41:28.997Z,23.12
2023-05-22T13:42:31.463Z,23.05
2023-05-22T13:43:30.297Z,23.13
2023-05-22T13:44:28.421Z,22.99
2023-05-22T13:45:28.425Z,23.08
2023-05-22T13:46:28.837Z,23.11
2023-05-22T13:47:28.519Z,23.08
2023-05-22T13:48:28.418Z,23.08
2023-05-22T13:49:28.524Z,23.07
2023-05-22T13:50:29.366Z,23.00
2023-05-22T13:51:28.389Z,23.08
2023-05-22T13:52:28.407Z,23.05
2023-05-22T13:53:28.346Z,23.04
2023-05-22T13:54:28.366Z,23.07
2023-05-22T13:55:28.355Z,23.18
2023-05-22T13:56:28.466Z,23.07
2023-05-22T13:57:28.412Z,23.11
2023-05-22T13:58:28.342Z,23.07
2023-05-22T13:59:28.390Z,23.13
2023-05-22T14:00:29.301Z,23.10
2023-05-22T14:01:28.394Z,23.05
2023-05-22T14:02:28.526Z,23.10
2023-05-22T14:03:28.413Z,23.13
2023-05-22T14:04:28.497Z,23.12
2023-05-22T14:05:28.488Z,23.05
2023-05-22T14:06:28.381Z,23.09
2023-05-22T14:07:28.422Z,23.12
2023-05-22T14:08:28.364Z,23.10
2023-05-22T14:09:29.327Z,23.18
2023-05-22T14:10:29.310Z,23.20
2023-05-22T14:11:29.318Z,23.29
2023-05-22T14:12:28.428Z,23.35
2023-05-22T14:13:28.333Z,23.30
2023-05-22T14:14:28.335Z,23.31
2023-05-22T14:15:28.401Z,23.34
2023-05-22T14:16:28.375Z,23.32
2023-05-22T14:17:28.333Z,23.43
2023-05-22T14:18:28.309Z,23.48
2023-05-22T14:19:28.332Z,23.51
2023-05-22T14:20:28.303Z,23.54
2023-05-22T14:21:28.379Z,23.51
2023-05-22T14:22:28.348Z,23.52
2023-05-22T14:23:28.349Z,23.63
2023-05-22T14:24:28.393Z,23.58
2023-05-22T14:25:28.420Z,23.60
2023-05-22T14:26:28.489Z,23.64
2023-05-22T14:27:28.503Z,23.58
2023-05-22T14:28:28.518Z,23.62
2023-05-22T14:29:28.567Z,23.63
2023-05-22T14:30:28.582Z,23.66
2023-05-22T14:31:28.677Z,23.69
2023-05-22T14:32:28.645Z,23.63
2023-05-22T14:33:28.633Z,23.66
2023-05-22T14:34:28.694Z,23.72
2023-05-22T14:35:28.733Z,23.72
2023-05-22T14:36:28.724Z,23.73
2023-05-22T14:37:28.824Z,23.75
2023-05-22T14:38:28.785Z,23.85
2023-05-22T14:39:28.952Z,24.45
2023-05-22T14:40:28.846Z,24.73
2023-05-22T14:41:28.844Z,24.60
2023-05-22T14:42:28.910Z,24.39
2023-05-22T14:43:29.016Z,24.20
2023-05-22T14:44:28.888Z,24.14
2023-05-22T14:45:28.925Z,24.61
2023-05-22T14:46:28.981Z,24.48
2023-05-22T14:47:28.995Z,24.40
2023-05-22T14:48:29.028Z,24.74
2023-05-22T14:49:29.093Z,25.53
2023-05-22T14:50:29.071Z,25.65
2023-05-22T14:51:29.112Z,25.16
2023-05-22T14:52:29.125Z,25.03
2023-05-22T14:53:29.229Z,24.93
2023-05-22T14:54:29.146Z,24.92
2023-05-22T14:55:29.185Z,24.93
2023-05-22T14:56:29.267Z,25.16
2023-05-22T14:57:29.257Z,25.23
2023-05-22T14:58:29.298Z,25.29
2023-05-22T14:59:29.337Z,25.19
2023-05-22T15:00:29.361Z,25.27
2023-05-22T15:01:29.442Z,25.22
2023-05-22T15:02:29.469Z,25.20
2023-05-22T15:03:29.578Z,25.22
2023-05-22T15:04:29.500Z,25.26
2023-05-22T15:05:29.529Z,25.26
2023-05-22T15:06:29.581Z,25.32
2023-05-22T15:07:43.101Z,25.25
2023-05-22T15:08:30.595Z,25.29
2023-05-22T15:09:29.713Z,25.30
2023-05-22T15:10:29.628Z,25.27
2023-05-22T15:11:29.540Z,25.30
2023-05-22T15:12:29.606Z,25.35
2023-05-22T15:13:29.562Z,25.33
2023-05-22T15:14:29.557Z,25.39
2023-05-22T15:15:29.635Z,25.36
2023-05-22T15:16:29.596Z,25.34
2023-05-22T15:17:29.560Z,25.34
2023-05-22T15:18:29.542Z,25.36
2023-05-22T15:19:29.595Z,25.37
2023-05-22T15:20:29.531Z,25.36
2023-05-22T15:21:29.501Z,25.36
2023-05-22T15:22:29.613Z,25.39
2023-05-22T15:23:29.594Z,25.38
2023-05-22T15:24:30.895Z,25.38
2023-05-22T15:25:29.788Z,25.44
2023-05-22T15:26:29.755Z,25.46
2023-05-22T15:27:29.827Z,25.42
2023-05-22T15:28:29.849Z,25.44
2023-05-22T15:29:29.902Z,25.47
2023-05-22T15:30:29.967Z,25.51
2023-05-22T15:31:30.009Z,25.46
2023-05-22T15:32:30.073Z,25.53
2023-05-22T15:33:30.092Z,25.47
2023-05-22T15:34:30.133Z,25.46
2023-05-22T15:35:30.223Z,25.47
2023-05-22T15:36:30.226Z,25.47
2023-05-22T15:37:32.248Z,25.53
2023-05-22T15:38:30.308Z,25.53
2023-05-22T15:39:30.412Z,25.50
2023-05-22T15:40:30.419Z,25.53
2023-05-22T15:41:30.549Z,25.50
2023-05-22T15:42:30.523Z,25.54
2023-05-22T15:43:30.661Z,25.48
2023-05-22T15:44:30.607Z,25.56
2023-05-22T15:45:30.761Z,25.52
2023-05-22T15:46:30.751Z,25.58
2023-05-22T15:47:30.808Z,25.60
2023-05-22T15:48:30.831Z,25.57
2023-05-22T15:49:31.523Z,25.57
2023-05-22T15:50:30.921Z,25.63
2023-05-22T15:51:31.022Z,25.63
2023-05-22T15:52:31.000Z,25.58
2023-05-22T15:53:31.079Z,25.57
2023-05-22T15:54:31.174Z,25.58
2023-05-22T15:55:31.230Z,25.63
2023-05-22T15:56:31.264Z,25.63
2023-05-22T15:57:31.402Z,25.64
2023-05-22T15:58:31.344Z,25.63
2023-05-22T15:59:31.433Z,25.64
2023-05-22T16:00:31.443Z,25.60
2023-05-22T16:01:31.588Z,25.61
2023-05-22T16:02:31.658Z,25.68
2023-05-22T16:03:31.750Z,25.71
2023-05-22T16:04:31.703Z,25.70
2023-05-22T16:05:31.720Z,25.70
2023-05-22T16:06:31.783Z,25.70
2023-05-22T16:07:31.869Z,25.68
2023-05-22T16:08:31.889Z,25.68
2023-05-22T16:09:32.879Z,25.76
2023-05-22T16:10:32.016Z,25.74
2023-05-22T16:11:32.090Z,25.72
2023-05-22T16:12:32.151Z,25.77
2023-05-22T16:13:32.249Z,25.77
2023-05-22T16:14:32.219Z,25.71
2023-05-22T16:15:32.367Z,25.70
2023-05-22T16:16:32.411Z,25.81
2023-05-22T16:17:32.428Z,25.77
2023-05-22T16:18:32.442Z,25.75
2023-05-22T16:19:32.644Z,25.80
2023-05-22T16:20:32.588Z,25.74
2023-05-22T16:21:32.690Z,25.82
2023-05-22T16:22:44.140Z,25.82
2023-05-22T16:23:33.748Z,25.85
2023-05-22T16:24:32.706Z,25.84
2023-05-22T16:25:32.710Z,25.90
2023-05-22T16:26:32.678Z,25.87
2023-05-22T16:27:32.665Z,25.92
2023-05-22T16:28:32.663Z,25.92
2023-05-22T16:29:32.768Z,25.91
2023-05-22T16:30:32.649Z,25.94
2023-05-22T16:31:32.754Z,25.94
2023-05-22T16:32:32.738Z,25.97
2023-05-22T16:33:32.732Z,25.94
2023-05-22T16:34:32.782Z,25.94
2023-05-22T16:35:32.812Z,25.94
2023-05-22T16:36:32.869Z,25.98
2023-05-22T16:37:32.932Z,25.98
2023-05-22T16:38:33.002Z,25.97
2023-05-22T16:39:33.054Z,26.00
2023-05-22T16:40:33.083Z,26.00
2023-05-22T16:41:33.162Z,25.95
2023-05-22T16:42:33.241Z,26.01
2023-05-22T16:43:33.260Z,26.01
2023-05-22T16:44:33.420Z,26.03
2023-05-22T16:45:33.468Z,26.00
2023-05-22T16:46:33.465Z,26.01
2023-05-22T16:47:33.452Z,26.05
2023-05-22T16:48:33.516Z,26.01
2023-05-22T16:49:33.557Z,26.08
2023-05-22T16:50:33.620Z,26.04
2023-05-22T16:51:33.658Z,26.11
2023-05-22T16:52:33.728Z,26.07
2023-05-22T16:53:34.694Z,26.10
2023-05-22T16:54:33.842Z,26.10
2023-05-22T16:55:33.873Z,26.07
2023-05-22T16:56:33.956Z,26.11
2023-05-22T16:57:33.972Z,26.11
2023-05-22T16:58:34.014Z,26.11
2023-05-22T16:59:34.083Z,26.10
2023-05-22T17:00:41.709Z,26.14
